Time;durP1;ratioP1;P1;durP2;ratioP2;P2;SDS_P1;SDS_P2;PMS_P1;PMS_P2;Temp;Humidity;BMP_temperature;BMP_pressure;BME280_temperature;BME280_humidity;BME280_pressure;Samples;Min_cycle;Max_cycle;Signal;HPM_P1;HPM_P2
2023/04/18 00:00:00;;;;;;;19.17;13.10;;;;;;;18.47;48.31;102864.88;5081358;28;20048;-37
2023/04/18 00:02:28;;;;;;;17.48;11.88;;;;;;;18.47;48.34;102856.81;5084563;28;20097;-37
2023/04/18 00:04:55;;;;;;;19.70;12.27;;;;;;;18.46;47.64;102863.16;5081756;28;20048;-37
2023/04/18 00:07:21;;;;;;;17.52;12.20;;;;;;;18.45;48.26;102867.69;5083845;28;20135;-38
2023/04/18 00:09:48;;;;;;;20.65;12.77;;;;;;;18.43;48.37;102866.06;5086029;28;20048;-37
2023/04/18 00:12:14;;;;;;;18.25;11.52;;;;;;;18.43;48.40;102863.38;5082177;28;20729;-38
2023/04/18 00:14:42;;;;;;;16.20;11.48;;;;;;;18.43;48.24;102863.38;5079364;28;20048;-36
2023/04/18 00:17:09;;;;;;;19.27;12.02;;;;;;;18.40;48.69;102861.75;5086043;28;20132;-35
2023/04/18 00:19:37;;;;;;;17.30;11.30;;;;;;;18.40;47.90;102866.25;5084300;28;20109;-38
2023/04/18 00:22:05;;;;;;;17.75;11.95;;;;;;;18.40;48.16;102868.94;5082985;28;20059;-35
2023/04/18 00:24:32;;;;;;;18.85;11.15;;;;;;;18.39;48.26;102864.56;5082609;28;20446;-35
2023/04/18 00:27:00;;;;;;;17.83;11.57;;;;;;;18.37;48.58;102863.78;5082497;28;20048;-35
2023/04/18 00:29:30;;;;;;;17.52;11.68;;;;;;;18.37;48.40;102866.47;5085415;28;20356;-37
2023/04/18 00:31:57;;;;;;;17.58;11.38;;;;;;;18.36;48.32;102868.31;5081610;28;20504;-38
2023/04/18 00:34:23;;;;;;;19.05;11.15;;;;;;;18.34;48.14;102859.50;5082300;28;20586;-38
2023/04/18 00:36:50;;;;;;;17.20;10.80;;;;;;;18.34;48.10;102870.25;5080667;28;20048;-36
2023/04/18 00:39:16;;;;;;;17.40;11.02;;;;;;;18.33;48.50;102873.00;5080014;28;20055;-36
2023/04/18 00:41:43;;;;;;;15.63;10.32;;;;;;;18.32;48.66;102860.56;5078899;28;20058;-36
2023/04/18 00:44:09;;;;;;;16.15;10.77;;;;;;;18.31;48.61;102870.44;5083911;28;20066;-36
2023/04/18 00:46:36;;;;;;;15.68;9.98;;;;;;;18.29;48.61;102861.66;5081659;28;20056;-35
2023/04/18 00:49:03;;;;;;;16.63;10.60;;;;;;;18.29;48.64;102867.03;5082664;28;20055;-36
2023/04/18 00:51:30;;;;;;;16.05;10.68;;;;;;;18.28;48.66;102862.59;5080303;28;20052;-35
2023/04/18 00:53:57;;;;;;;14.95;10.45;;;;;;;18.28;48.61;102864.44;5083330;28;20095;-36
2023/04/18 00:56:24;;;;;;;16.13;10.50;;;;;;;18.25;48.62;102861.00;5080114;28;20098;-36
2023/04/18 00:58:51;;;;;;;14.55;9.80;;;;;;;18.25;48.08;102862.81;5086083;28;20668;-37
2023/04/18 01:01:17;;;;;;;15.07;9.75;;;;;;;18.23;48.17;102854.00;5077208;28;20068;-36
2023/04/18 01:03:44;;;;;;;14.00;9.65;;;;;;;18.23;48.10;102851.34;5081045;28;20435;-35
2023/04/18 01:06:11;;;;;;;15.70;9.70;;;;;;;18.22;47.94;102860.34;5080826;28;20044;-36
2023/04/18 01:08:38;;;;;;;14.27;9.50;;;;;;;18.20;48.22;102860.44;5081655;28;20052;-35
2023/04/18 01:11:04;;;;;;;15.32;9.15;;;;;;;18.20;48.48;102862.28;5084120;28;20052;-35
2023/04/18 01:13:31;;;;;;;13.93;10.13;;;;;;;18.18;48.55;102848.97;5081543;28;20039;-36
2023/04/18 01:15:58;;;;;;;14.00;9.25;;;;;;;18.17;48.05;102849.94;5082153;28;20497;-36
2023/04/18 01:18:25;;;;;;;12.98;9.23;;;;;;;18.17;48.68;102846.38;5079019;28;20052;-36
2023/04/18 01:20:53;;;;;;;14.32;9.35;;;;;;;18.15;48.28;102843.81;5081748;28;20048;-35
2023/04/18 01:23:20;;;;;;;14.50;9.10;;;;;;;18.13;48.06;102847.56;5081010;28;20052;-36
2023/04/18 01:25:48;;;;;;;13.10;8.82;;;;;;;18.13;48.22;102843.06;5080494;28;20053;-36
2023/04/18 01:28:15;;;;;;;13.32;8.68;;;;;;;18.12;48.20;102852.06;5081501;28;20040;-36
2023/04/18 01:30:42;;;;;;;13.63;8.73;;;;;;;18.10;47.96;102834.38;5080623;28;20055;-36
2023/04/18 01:33:09;;;;;;;11.73;8.55;;;;;;;18.09;48.29;102844.25;5086624;28;20471;-36
2023/04/18 01:35:35;;;;;;;14.95;9.35;;;;;;;18.07;47.81;102846.16;5084704;28;20428;-36
2023/04/18 01:38:02;;;;;;;12.70;8.85;;;;;;;18.05;48.16;102840.06;5080472;28;20048;-36
2023/04/18 01:40:29;;;;;;;13.27;8.95;;;;;;;18.05;47.67;102842.75;5083075;28;20076;-36
2023/04/18 01:42:55;;;;;;;12.85;9.15;;;;;;;18.03;48.00;102846.47;5081126;28;20288;-36
2023/04/18 01:45:22;;;;;;;12.38;8.77;;;;;;;18.02;48.13;102839.41;5087693;28;20339;-36
2023/04/18 01:47:48;;;;;;;12.18;8.05;;;;;;;18.01;48.29;102835.88;5081827;28;20343;-36
2023/04/18 01:50:15;;;;;;;12.02;7.80;;;;;;;17.99;47.93;102841.31;5080880;28;20062;-37
2023/04/18 01:52:42;;;;;;;11.88;8.55;;;;;;;17.98;48.12;102836.91;5079087;28;20411;-38
2023/04/18 01:55:09;;;;;;;11.90;8.35;;;;;;;17.98;47.74;102836.06;5087723;28;20040;-36
2023/04/18 01:57:35;;;;;;;11.68;7.80;;;;;;;17.97;47.81;102832.53;5078017;28;20044;-36
2023/04/18 02:00:06;;;;;;;11.40;7.85;;;;;;;17.97;47.71;102842.41;5083649;28;20665;-37
2023/04/18 02:02:33;;;;;;;11.38;7.53;;;;;;;17.97;47.61;102837.03;5083889;28;20050;-37
2023/04/18 02:05:00;;;;;;;10.82;7.28;;;;;;;17.94;47.88;102834.56;5079246;28;20080;-36
2023/04/18 02:07:27;;;;;;;13.45;7.45;;;;;;;17.93;48.02;102836.38;5081323;28;20040;-37
2023/04/18 02:09:53;;;;;;;12.60;7.78;;;;;;;17.92;47.60;102834.63;5082776;28;20147;-36
2023/04/18 02:12:20;;;;;;;10.68;7.60;;;;;;;17.92;47.68;102833.78;5080580;28;20090;-37
2023/04/18 02:14:53;;;;;;;10.77;7.57;;;;;;;17.91;47.60;102840.13;5081115;28;20040;-36
2023/04/18 02:17:22;;;;;;;10.18;6.85;;;;;;;17.90;47.75;102839.25;5080537;28;20079;-36
2023/04/18 02:19:50;;;;;;;11.00;7.53;;;;;;;17.90;47.71;102835.72;5080078;28;20044;-37
2023/04/18 02:22:16;;;;;;;9.43;6.60;;;;;;;17.90;47.87;102843.78;5080226;28;20376;-36
2023/04/18 02:24:43;;;;;;;10.98;6.88;;;;;;;17.88;47.96;102833.13;5080108;28;20545;-36
2023/04/18 02:27:10;;;;;;;9.32;6.72;;;;;;;17.88;47.94;102832.28;5079512;28;20048;-36
2023/04/18 02:29:37;;;;;;;10.13;7.15;;;;;;;17.87;47.63;102830.56;5079726;28;20420;-35
2023/04/18 02:32:03;;;;;;;10.85;6.97;;;;;;;17.86;47.51;102828.84;5080735;28;20048;-36
2023/04/18 02:34:32;;;;;;;10.45;6.70;;;;;;;17.84;47.78;102834.28;5082529;28;20113;-36
2023/04/18 02:36:59;;;;;;;10.32;7.22;;;;;;;17.84;47.80;102838.81;5086332;28;20117;-36
2023/04/18 02:39:25;;;;;;;8.45;5.88;;;;;;;17.83;47.95;102827.22;5081349;28;20690;-36
2023/04/18 02:41:52;;;;;;;10.13;6.80;;;;;;;17.82;47.30;102830.88;5077234;28;20048;-37
2023/04/18 02:44:18;;;;;;;9.52;6.60;;;;;;;17.83;47.49;102834.41;5082425;28;20041;-36
2023/04/18 02:46:45;;;;;;;11.65;7.90;;;;;;;17.80;47.75;102834.63;5082055;28;20052;-37
2023/04/18 02:49:11;;;;;;;9.50;6.28;;;;;;;17.83;47.26;102832.59;5084122;28;20048;-37
2023/04/18 02:51:38;;;;;;;9.43;6.35;;;;;;;17.92;47.67;102833.78;5081319;28;20048;-36
2023/04/18 02:54:05;;;;;;;10.38;6.35;;;;;;;17.98;47.29;102828.88;5082863;28;20431;-36
2023/04/18 02:56:31;;;;;;;8.75;6.28;;;;;;;18.07;47.50;102837.25;5080419;28;20416;-36
2023/04/18 02:58:58;;;;;;;10.02;6.32;;;;;;;18.12;47.04;102835.97;5081680;28;20492;-36
2023/04/18 03:01:24;;;;;;;9.57;6.65;;;;;;;18.20;47.08;102838.97;5081454;28;20565;-36
2023/04/18 03:03:52;;;;;;;9.35;6.50;;;;;;;18.29;46.86;102840.19;5079350;28;20075;-36
2023/04/18 03:06:18;;;;;;;9.82;6.10;;;;;;;18.35;47.11;102838.88;5085070;28;20325;-36
2023/04/18 03:08:45;;;;;;;10.43;6.45;;;;;;;18.40;46.38;102834.91;5085497;28;20048;-36
2023/04/18 03:11:12;;;;;;;8.27;6.05;;;;;;;18.45;46.72;102832.78;5084079;28;20044;-36
2023/04/18 03:13:38;;;;;;;9.57;6.65;;;;;;;18.49;46.19;102836.06;5084067;28;20052;-36
2023/04/18 03:16:05;;;;;;;8.15;5.88;;;;;;;18.53;46.26;102840.25;5081538;28;20058;-36
2023/04/18 03:18:32;;;;;;;8.50;6.28;;;;;;;18.54;46.63;102833.09;5084619;28;20055;-36
2023/04/18 03:20:58;;;;;;;9.48;6.15;;;;;;;18.55;46.12;102829.44;5083817;28;20051;-35
2023/04/18 03:23:25;;;;;;;8.73;6.45;;;;;;;18.56;46.35;102836.50;5083236;28;20055;-36
2023/04/18 03:25:51;;;;;;;8.73;5.95;;;;;;;18.56;46.33;102829.31;5080576;28;20052;-36
2023/04/18 03:28:18;;;;;;;10.02;6.25;;;;;;;18.56;45.91;102832.00;5082120;28;20062;-36
2023/04/18 03:30:44;;;;;;;9.43;6.20;;;;;;;18.56;46.11;102831.13;5081461;28;20064;-37
2023/04/18 03:33:13;;;;;;;8.02;5.50;;;;;;;18.57;45.97;102835.53;5086197;28;20044;-37
2023/04/18 03:35:39;;;;;;;7.72;5.55;;;;;;;18.57;46.18;102832.84;5083269;28;20515;-37
2023/04/18 03:38:06;;;;;;;8.05;5.72;;;;;;;18.58;46.48;102832.75;5080880;28;20052;-36
2023/04/18 03:40:32;;;;;;;8.52;5.82;;;;;;;18.58;45.73;102838.13;5081080;28;20436;-36
2023/04/18 03:42:59;;;;;;;8.15;5.60;;;;;;;18.59;45.94;102830.94;5086524;28;20072;-37
2023/04/18 03:45:26;;;;;;;8.07;5.68;;;;;;;18.58;45.57;102837.28;5080879;28;20135;-36
2023/04/18 03:47:52;;;;;;;8.98;6.03;;;;;;;18.58;45.66;102840.81;5083802;28;20044;-36
2023/04/18 03:50:19;;;;;;;8.50;5.70;;;;;;;18.58;45.63;102848.03;5086151;28;20066;-37
2023/04/18 03:52:46;;;;;;;7.47;5.38;;;;;;;18.58;46.06;102838.13;5082730;28;20056;-35
2023/04/18 03:55:12;;;;;;;8.63;5.57;;;;;;;18.60;45.73;102838.00;5083820;28;20048;-35
2023/04/18 03:57:39;;;;;;;7.43;5.10;;;;;;;18.63;45.43;102843.19;5078362;28;20041;-38
2023/04/18 04:00:07;;;;;;;7.15;5.28;;;;;;;18.64;46.02;102847.56;5083846;28;20153;-36
2023/04/18 04:02:34;;;;;;;7.53;5.40;;;;;;;18.67;45.95;102847.34;5084231;28;20126;-38
2023/04/18 04:05:01;;;;;;;8.07;5.65;;;;;;;18.69;45.50;102851.66;5083179;28;20082;-39
2023/04/18 04:07:28;;;;;;;7.90;5.18;;;;;;;18.69;45.61;102851.66;5083372;28;20072;-37
2023/04/18 04:09:54;;;;;;;7.90;5.35;;;;;;;18.70;45.90;102855.25;5082396;28;20052;-35
2023/04/18 04:12:21;;;;;;;8.55;5.53;;;;;;;18.69;45.59;102845.41;5079423;28;20535;-35
2023/04/18 04:14:47;;;;;;;9.02;5.95;;;;;;;18.68;45.77;102849.94;5078703;28;20048;-35
2023/04/18 04:17:14;;;;;;;7.85;5.70;;;;;;;18.68;45.28;102849.94;5082953;28;20145;-35
2023/04/18 04:19:40;;;;;;;7.20;5.18;;;;;;;18.68;45.68;102849.06;5082347;28;20059;-35
2023/04/18 04:22:07;;;;;;;6.97;4.88;;;;;;;18.68;45.25;102852.63;5082380;28;20340;-35
2023/04/18 04:24:37;;;;;;;7.30;5.30;;;;;;;18.66;45.32;102849.19;5084236;28;20063;-35
2023/04/18 04:27:04;;;;;;;7.72;5.22;;;;;;;18.67;45.35;102864.34;5081447;28;20076;-38
2023/04/18 04:29:30;;;;;;;8.05;5.63;;;;;;;18.66;45.07;102849.19;5088401;28;20049;-36
2023/04/18 04:31:58;;;;;;;6.93;4.57;;;;;;;18.65;45.37;102858.22;5083114;28;20079;-36
2023/04/18 04:34:25;;;;;;;8.18;5.45;;;;;;;18.64;45.71;102853.78;5085085;28;20078;-37
2023/04/18 04:36:53;;;;;;;8.65;5.35;;;;;;;18.62;45.53;102853.06;5089389;28;20040;-37
2023/04/18 04:39:19;;;;;;;7.60;4.82;;;;;;;18.62;45.50;102863.81;5080270;28;20056;-36
2023/04/18 04:41:46;;;;;;;7.20;5.55;;;;;;;18.61;45.07;102854.00;5088550;28;20051;-36
2023/04/18 04:44:16;;;;;;;8.02;5.30;;;;;;;18.60;45.66;102859.50;5088940;28;20043;-36
2023/04/18 04:46:43;;;;;;;7.82;5.22;;;;;;;18.61;45.20;102856.69;5087727;28;20052;-36
2023/04/18 04:49:10;;;;;;;6.75;5.00;;;;;;;18.60;45.26;102862.19;5086644;28;20080;-36
2023/04/18 04:51:38;;;;;;;8.05;4.95;;;;;;;18.60;45.49;102854.13;5082408;28;20403;-36
2023/04/18 04:54:05;;;;;;;8.02;5.38;;;;;;;18.60;44.97;102864.88;5082505;28;20054;-36
2023/04/18 04:56:32;;;;;;;7.30;5.03;;;;;;;18.58;45.48;102865.00;5080500;28;20667;-36
2023/04/18 04:58:58;;;;;;;10.50;5.82;;;;;;;18.59;45.24;102864.00;5088074;28;21224;-36
2023/04/18 05:01:25;;;;;;;8.10;5.50;;;;;;;18.60;45.57;102867.56;5080614;28;20135;-36
2023/04/18 05:03:52;;;;;;;11.77;5.60;;;;;;;18.59;45.59;102872.06;5083933;28;20131;-37
2023/04/18 05:06:19;;;;;;;7.68;5.47;;;;;;;18.60;45.48;102871.09;5083255;28;20056;-36
2023/04/18 05:08:47;;;;;;;10.57;5.63;;;;;;;18.62;45.49;102869.19;5079359;28;20486;-36
2023/04/18 05:11:14;;;;;;;9.70;5.80;;;;;;;18.63;45.57;102870.03;5081595;28;20040;-36
2023/04/18 05:13:41;;;;;;;8.32;5.70;;;;;;;18.65;45.62;102884.19;5078280;28;20103;-35
2023/04/18 05:16:08;;;;;;;6.90;4.93;;;;;;;18.67;45.64;102874.22;5078851;28;20044;-36
2023/04/18 05:18:37;;;;;;;8.88;5.50;;;;;;;18.70;45.47;102879.41;5082219;28;20115;-37
2023/04/18 05:21:04;;;;;;;8.00;5.00;;;;;;;18.72;45.32;102866.72;5079334;28;20048;-37
2023/04/18 05:23:31;;;;;;;7.93;5.53;;;;;;;18.74;44.97;102875.53;5081389;28;20133;-36
2023/04/18 05:25:58;;;;;;;8.85;6.10;;;;;;;18.73;45.19;102877.38;5081659;28;20075;-36
2023/04/18 05:28:28;;;;;;;7.75;5.25;;;;;;;18.74;44.93;102867.50;5081915;28;20052;-36
2023/04/18 05:30:59;;;;;;;9.30;6.13;;;;;;;18.72;45.13;102881.00;5076945;28;20055;-36
2023/04/18 05:33:30;;;;;;;9.85;5.25;;;;;;;18.70;44.88;102887.47;5084966;28;20135;-36
2023/04/18 05:35:58;;;;;;;8.85;5.75;;;;;;;18.67;45.16;102890.34;5082443;28;20127;-36
2023/04/18 05:38:24;;;;;;;8.88;5.30;;;;;;;18.58;45.49;102881.09;5084414;28;20044;-36
2023/04/18 05:40:54;;;;;;;7.20;5.03;;;;;;;18.51;45.27;102890.56;5083604;28;20102;-36
2023/04/18 05:43:21;;;;;;;9.32;6.15;;;;;;;18.43;44.92;102888.41;5089245;28;20052;-36
2023/04/18 05:45:47;;;;;;;7.05;5.03;;;;;;;18.34;45.39;102890.88;5083667;28;20040;-36
2023/04/18 05:48:14;;;;;;;9.15;5.30;;;;;;;18.24;45.36;102890.63;5082292;28;20126;-36
2023/04/18 05:50:40;;;;;;;8.63;5.75;;;;;;;18.17;45.67;102905.41;5079330;28;20048;-36
2023/04/18 05:53:07;;;;;;;8.90;5.68;;;;;;;18.10;45.98;102905.00;5083026;28;20052;-37
2023/04/18 05:55:34;;;;;;;8.75;5.78;;;;;;;18.04;45.97;102917.97;5084027;28;20048;-36
2023/04/18 05:58:00;;;;;;;9.65;5.88;;;;;;;17.98;46.13;102909.38;5089281;28;20135;-36
2023/04/18 06:00:27;;;;;;;10.30;6.13;;;;;;;17.93;46.32;102905.25;5082957;28;20466;-37
2023/04/18 06:02:53;;;;;;;8.15;5.30;;;;;;;17.86;46.37;102904.81;5081634;28;20048;-37
2023/04/18 06:05:20;;;;;;;8.57;5.60;;;;;;;17.81;46.58;102906.97;5080720;28;20075;-35
2023/04/18 06:07:47;;;;;;;8.35;6.32;;;;;;;17.77;46.34;102918.84;5086446;28;20051;-36
2023/04/18 06:10:14;;;;;;;8.68;5.97;;;;;;;17.73;46.81;102907.44;5080270;28;20079;-36
2023/04/18 06:12:41;;;;;;;9.15;5.35;;;;;;;17.70;46.59;102912.13;5083611;28;20050;-36
2023/04/18 06:15:08;;;;;;;7.95;5.80;;;;;;;17.66;46.82;102906.09;5077516;28;20051;-36
2023/04/18 06:17:35;;;;;;;7.88;5.70;;;;;;;17.67;46.72;102912.31;5081689;28;20413;-36
2023/04/18 06:20:03;;;;;;;7.28;5.30;;;;;;;17.65;47.01;102912.44;5079032;28;20499;-37
2023/04/18 06:22:30;;;;;;;8.32;5.22;;;;;;;17.65;46.82;102907.06;5075749;28;20465;-37
2023/04/18 06:24:56;;;;;;;9.82;5.82;;;;;;;17.66;47.33;102907.94;5078577;28;20518;-36
2023/04/18 06:27:25;;;;;;;7.38;5.43;;;;;;;17.66;46.82;102911.47;5081332;28;20503;-36
2023/04/18 06:29:57;;;;;;;6.70;4.97;;;;;;;17.68;46.74;102911.34;5077658;28;20375;-36
2023/04/18 06:32:24;;;;;;;10.00;6.00;;;;;;;17.68;47.08;102911.34;5083432;28;20055;-36
2023/04/18 06:34:51;;;;;;;7.57;5.63;;;;;;;17.71;46.74;102905.78;5082321;28;20134;-36
2023/04/18 06:37:18;;;;;;;8.65;5.65;;;;;;;17.72;46.74;102919.09;5082190;28;20048;-36
2023/04/18 06:39:45;;;;;;;8.70;5.32;;;;;;;17.73;46.86;102920.84;5082984;28;20054;-37
2023/04/18 06:42:11;;;;;;;6.40;4.88;;;;;;;17.74;46.94;102919.91;5087647;28;20047;-36
2023/04/18 06:44:38;;;;;;;7.75;5.75;;;;;;;17.75;46.97;102918.06;5081035;28;20071;-36
2023/04/18 06:47:05;;;;;;;7.68;5.43;;;;;;;17.76;46.73;102917.09;5081428;28;20048;-36
2023/04/18 06:49:31;;;;;;;7.20;5.15;;;;;;;17.78;46.93;102914.34;5080410;28;20051;-36
2023/04/18 06:51:58;;;;;;;7.07;4.88;;;;;;;17.79;46.40;102910.69;5082695;28;20040;-37
2023/04/18 06:54:24;;;;;;;9.73;5.35;;;;;;;17.81;47.13;102924.84;5081145;28;20054;-36
2023/04/18 06:56:52;;;;;;;7.18;5.05;;;;;;;17.81;46.45;102920.38;5081208;28;20106;-37
2023/04/18 06:59:20;;;;;;;6.45;4.90;;;;;;;17.83;46.77;102917.56;5083867;28;20143;-36
2023/04/18 07:01:47;;;;;;;7.45;4.78;;;;;;;17.84;46.82;102927.34;5081117;28;20048;-36
2023/04/18 07:04:14;;;;;;;7.05;4.93;;;;;;;17.86;47.02;102914.69;5081450;28;20039;-36
2023/04/18 07:06:41;;;;;;;9.13;5.10;;;;;;;17.89;46.68;102927.88;5099998;28;20044;-36
2023/04/18 07:09:08;;;;;;;6.90;4.90;;;;;;;17.95;46.93;102920.28;5081749;28;20047;-37
2023/04/18 07:11:34;;;;;;;7.57;5.18;;;;;;;18.05;46.42;102923.25;5082435;28;20058;-36
2023/04/18 07:14:01;;;;;;;8.43;5.07;;;;;;;18.13;46.45;102918.22;5088662;28;20051;-38
2023/04/18 07:16:28;;;;;;;7.28;5.10;;;;;;;18.22;45.85;102924.78;5081178;28;20066;-36
2023/04/18 07:18:54;;;;;;;7.35;5.10;;;;;;;18.31;46.07;102923.28;5081691;28;20056;-37
2023/04/18 07:21:21;;;;;;;7.30;5.20;;;;;;;18.38;45.68;102925.44;5082500;28;20044;-36
2023/04/18 07:23:47;;;;;;;6.85;4.90;;;;;;;18.43;45.86;102930.50;5089915;28;20055;-36
2023/04/18 07:26:14;;;;;;;8.63;5.30;;;;;;;18.47;45.30;102926.63;5084201;28;20052;-36
2023/04/18 07:28:40;;;;;;;8.27;5.03;;;;;;;18.50;45.61;102929.97;5086716;28;20135;-36
2023/04/18 07:31:10;;;;;;;7.07;4.78;;;;;;;18.55;45.11;102926.09;5081307;28;20048;-36
2023/04/18 07:33:37;;;;;;;6.97;4.78;;;;;;;18.58;45.27;102931.28;5082269;28;20085;-37
2023/04/18 07:36:04;;;;;;;6.25;4.78;;;;;;;18.59;44.79;102928.47;5088849;28;20427;-36
2023/04/18 07:38:33;;;;;;;7.13;4.68;;;;;;;18.61;44.52;102926.53;5086302;28;20346;-36
2023/04/18 07:41:01;;;;;;;7.68;4.90;;;;;;;18.62;44.50;102924.72;5087392;28;20083;-36
2023/04/18 07:43:27;;;;;;;7.95;4.97;;;;;;;18.64;44.80;102929.00;5083627;28;20130;-37
2023/04/18 07:45:54;;;;;;;6.65;4.53;;;;;;;18.65;44.73;102928.06;5086880;28;20036;-36
2023/04/18 07:48:21;;;;;;;6.13;4.32;;;;;;;18.67;44.76;102925.25;5082156;28;20057;-37
2023/04/18 07:50:48;;;;;;;7.25;5.00;;;;;;;18.69;44.62;102918.81;5082895;28;20044;-37
2023/04/18 07:53:14;;;;;;;6.43;4.50;;;;;;;18.68;44.30;102919.75;5084648;28;20048;-36
2023/04/18 07:55:42;;;;;;;6.90;4.45;;;;;;;18.70;44.88;102925.94;5084001;28;20602;-36
2023/04/18 07:58:08;;;;;;;7.32;4.30;;;;;;;18.70;44.50;102920.56;5083411;28;20171;-36
2023/04/18 08:00:37;;;;;;;5.72;4.20;;;;;;;18.72;45.03;102926.69;5078458;28;20439;-36
2023/04/18 08:03:06;;;;;;;5.78;4.50;;;;;;;18.72;44.43;102918.63;5081232;28;20142;-36
2023/04/18 08:05:33;;;;;;;6.07;4.53;;;;;;;18.74;44.65;102930.13;5080183;28;20048;-36
2023/04/18 08:08:00;;;;;;;7.40;4.60;;;;;;;18.74;44.73;102916.69;5083604;28;20084;-37
2023/04/18 08:10:27;;;;;;;5.97;4.38;;;;;;;18.77;44.80;102917.44;5080666;28;20351;-36
2023/04/18 08:12:53;;;;;;;5.78;4.72;;;;;;;18.79;44.58;102931.63;5097516;27;20347;-36
2023/04/18 08:15:20;;;;;;;6.80;4.55;;;;;;;18.80;44.53;102920.75;5079638;28;20335;-37
2023/04/18 08:17:47;;;;;;;5.65;4.35;;;;;;;18.82;44.14;102920.69;5076221;28;20314;-36
2023/04/18 08:20:14;;;;;;;6.03;4.55;;;;;;;18.83;44.45;102925.06;5082427;28;20136;-36
2023/04/18 08:22:41;;;;;;;7.70;4.45;;;;;;;18.83;44.23;102915.19;5082994;28;20052;-36
2023/04/18 08:25:28;;;;;;;5.20;4.03;;;;;;;18.87;44.32;102924.75;5076746;28;20106;-36
2023/04/18 08:27:54;;;;;;;7.93;4.88;;;;;;;18.88;44.25;102914.84;5085380;28;20131;-36
2023/04/18 08:30:21;;;;;;;4.95;3.75;;;;;;;18.89;43.89;102919.25;5095903;28;20053;-36
2023/04/18 08:32:48;;;;;;;5.47;3.90;;;;;;;18.90;44.39;102926.38;5082235;28;20411;-36
2023/04/18 08:35:15;;;;;;;6.03;4.43;;;;;;;18.92;43.80;102925.28;5085960;28;20078;-36
2023/04/18 08:37:42;;;;;;;6.90;4.50;;;;;;;18.93;44.28;102929.66;5084041;28;20051;-39
2023/04/18 08:40:09;;;;;;;6.93;3.85;;;;;;;18.94;43.68;102927.88;5085266;28;20044;-36
2023/04/18 08:42:37;;;;;;;5.32;4.00;;;;;;;18.94;43.93;102920.66;5080090;28;20101;-38
2023/04/18 08:45:05;;;;;;;6.13;4.15;;;;;;;18.95;43.28;102913.47;5081871;28;20366;-36
2023/04/18 08:47:34;;;;;;;4.80;4.05;;;;;;;18.97;44.09;102924.94;5084846;28;20089;-36
2023/04/18 08:50:01;;;;;;;5.63;3.80;;;;;;;18.98;43.99;102924.84;5081556;28;20047;-37
2023/04/18 08:52:29;;;;;;;6.30;3.80;;;;;;;18.98;43.72;102918.63;5087100;28;20048;-37
2023/04/18 08:54:56;;;;;;;4.75;3.88;;;;;;;19.02;43.85;102921.94;5083072;28;20080;-37
2023/04/18 08:57:26;;;;;;;4.63;3.53;;;;;;;19.04;44.48;102934.28;5079535;28;20444;-36
2023/04/18 08:59:54;;;;;;;5.35;3.67;;;;;;;19.05;44.17;102914.50;5080115;28;20450;-36
2023/04/18 09:02:27;;;;;;;5.32;3.70;;;;;;;19.06;44.16;102908.19;5078215;28;20436;-37
2023/04/18 09:04:54;;;;;;;5.10;3.83;;;;;;;19.08;43.86;102906.22;5080750;28;20447;-37
2023/04/18 09:07:28;;;;;;;5.32;3.92;;;;;;;19.10;44.04;102908.81;5082155;28;20044;-38
2023/04/18 09:09:56;;;;;;;6.22;4.32;;;;;;;19.11;43.47;102908.69;5078622;28;20421;-36
2023/04/18 09:12:25;;;;;;;5.25;3.80;;;;;;;19.11;44.13;102908.69;5081982;28;20047;-37
2023/04/18 09:14:56;;;;;;;4.80;3.63;;;;;;;19.13;44.11;102911.25;5082646;28;20048;-36
2023/04/18 09:17:33;;;;;;;6.43;3.90;;;;;;;19.13;44.08;102904.06;5078722;28;20091;-37
2023/04/18 09:20:03;;;;;;;6.00;4.03;;;;;;;19.14;43.96;102905.81;5080917;28;20056;-36
2023/04/18 09:22:49;;;;;;;5.00;4.03;;;;;;;19.13;43.74;102913.97;5083541;28;20052;-39
2023/04/18 09:25:41;;;;;;;5.22;3.60;;;;;;;19.13;43.43;102912.13;5080363;28;20097;-38
2023/04/18 09:28:29;;;;;;;7.95;3.83;;;;;;;19.11;42.85;102919.44;5081040;28;20094;-37
2023/04/18 09:31:03;;;;;;;4.95;3.50;;;;;;;19.11;43.25;102911.38;5082964;28;20127;-36
2023/04/18 09:33:31;;;;;;;5.68;3.60;;;;;;;19.10;43.43;102906.13;5081082;28;20051;-36
2023/04/18 09:36:20;;;;;;;5.40;3.60;;;;;;;19.08;43.65;102911.59;5080675;28;20113;-36
2023/04/18 09:38:48;;;;;;;5.78;3.50;;;;;;;19.12;43.95;102909.56;5083736;28;20091;-36
2023/04/18 09:41:15;;;;;;;5.00;3.35;;;;;;;19.13;43.75;102904.06;5076336;28;20075;-37
2023/04/18 09:43:47;;;;;;;5.07;3.30;;;;;;;19.18;43.74;102895.69;5084061;28;20524;-37
2023/04/18 09:46:16;;;;;;;5.00;3.35;;;;;;;19.19;44.24;102903.63;5078230;28;20079;-36
2023/04/18 09:48:43;;;;;;;4.88;3.20;;;;;;;19.21;44.17;102892.75;5078927;28;20052;-39
2023/04/18 09:51:13;;;;;;;5.80;3.50;;;;;;;19.24;44.01;102888.00;5077069;28;20048;-37
2023/04/18 09:53:43;;;;;;;7.32;4.20;;;;;;;19.28;44.32;102893.19;5077708;28;20078;-38
2023/04/18 09:56:24;;;;;;;6.45;3.83;;;;;;;19.31;44.17;102887.59;5079582;28;20040;-37
2023/04/18 09:58:55;;;;;;;6.18;3.72;;;;;;;19.36;44.69;102897.00;5084274;28;20048;-37
2023/04/18 10:01:27;;;;;;;8.45;4.18;;;;;;;19.41;44.92;102899.38;5087165;28;20067;-37
2023/04/18 10:03:55;;;;;;;6.43;3.47;;;;;;;19.44;44.20;102899.16;5079748;28;20040;-38
2023/04/18 10:06:22;;;;;;;6.28;3.90;;;;;;;19.47;44.63;102901.63;5073285;28;20048;-37
2023/04/18 10:08:50;;;;;;;6.07;3.80;;;;;;;19.48;44.36;102898.81;5080935;28;20807;-37
2023/04/18 10:11:17;;;;;;;5.93;3.95;;;;;;;19.49;44.30;102900.50;5079284;28;20094;-37
2023/04/18 10:13:47;;;;;;;6.75;4.07;;;;;;;19.51;44.91;102896.88;5087622;28;20050;-37
2023/04/18 10:16:15;;;;;;;8.00;4.35;;;;;;;19.51;45.10;102886.97;5091530;28;20084;-37
2023/04/18 10:18:42;;;;;;;6.53;4.22;;;;;;;19.52;44.36;102888.69;5089235;28;20048;-39
2023/04/18 10:21:09;;;;;;;5.18;3.78;;;;;;;19.52;44.50;102890.50;5085809;28;20048;-38
2023/04/18 10:23:39;;;;;;;5.75;3.67;;;;;;;19.51;43.83;102895.03;5085726;28;20066;-38
2023/04/18 10:26:07;;;;;;;5.18;3.53;;;;;;;19.52;43.28;102891.38;5091359;28;20040;-37
2023/04/18 10:28:55;;;;;;;6.30;3.63;;;;;;;19.51;42.86;102896.88;5092075;28;20105;-38
2023/04/18 10:31:26;;;;;;;4.63;3.55;;;;;;;19.53;43.71;102893.09;5084818;28;20101;-37
2023/04/18 10:33:55;;;;;;;4.10;3.38;;;;;;;19.53;42.87;102892.22;5089370;28;20458;-37
2023/04/18 10:36:31;;;;;;;5.90;3.72;;;;;;;19.53;42.89;102889.53;5086829;28;20040;-37
2023/04/18 10:39:19;;;;;;;5.50;3.80;;;;;;;19.52;42.22;102891.38;5080722;28;20052;-38
2023/04/18 10:41:50;;;;;;;5.45;3.75;;;;;;;19.52;42.62;102890.50;5085818;28;20081;-37
2023/04/18 10:44:23;;;;;;;5.20;3.20;;;;;;;19.50;43.01;102890.63;5085547;28;20147;-37
2023/04/18 10:46:49;;;;;;;5.77;3.73;;;;;;;19.48;43.11;102895.25;5083348;28;20352;-38
2023/04/18 10:49:18;;;;;;;4.68;3.30;;;;;;;19.46;42.77;102887.31;5084086;28;20153;-37
2023/04/18 10:51:46;;;;;;;6.22;3.28;;;;;;;19.42;43.03;102882.28;5081863;28;20132;-37
2023/04/18 10:54:27;;;;;;;4.55;3.22;;;;;;;19.40;42.75;102893.13;5101276;28;20052;-36
2023/04/18 10:56:55;;;;;;;5.28;3.60;;;;;;;19.38;43.32;102884.34;5083927;28;20191;-37
2023/04/18 10:59:23;;;;;;;5.05;3.38;;;;;;;19.35;42.98;102881.00;5079372;28;20051;-36
2023/04/18 11:02:08;;;;;;;5.57;3.42;;;;;;;19.35;43.29;102889.06;5078490;28;20055;-36
2023/04/18 11:04:35;;;;;;;5.78;3.72;;;;;;;19.37;42.97;102876.34;5084187;28;20082;-37
2023/04/18 11:07:02;;;;;;;4.60;3.17;;;;;;;19.39;43.26;102879.81;5082254;28;20056;-37
2023/04/18 11:09:28;;;;;;;4.13;3.05;;;;;;;19.39;43.19;102872.59;5088222;28;20098;-36
2023/04/18 11:12:07;;;;;;;6.20;3.20;;;;;;;19.39;42.68;102874.44;5086047;28;20075;-36
2023/04/18 11:14:48;;;;;;;4.38;2.60;;;;;;;19.39;42.86;102872.59;5087411;28;20040;-37
2023/04/18 11:17:26;;;;;;;4.90;3.33;;;;;;;19.37;43.02;102871.84;5087010;28;20036;-35
2023/04/18 11:20:00;;;;;;;6.28;3.45;;;;;;;19.41;42.74;102864.41;5090220;28;20059;-37
2023/04/18 11:22:27;;;;;;;4.10;2.88;;;;;;;19.46;42.47;102862.25;5079652;28;20048;-36
2023/04/18 11:24:58;;;;;;;4.32;2.90;;;;;;;19.51;43.12;102857.38;5089412;28;20052;-36